createdAt,value
2023-10-07T00:02:18.864Z,97.69
2023-10-07T00:04:46.891Z,97.23
2023-10-07T00:07:16.334Z,97.64
2023-10-07T00:09:51.631Z,98.85
2023-10-07T00:12:20.572Z,100.00
2023-10-07T00:14:48.499Z,99.86
2023-10-07T00:17:19.644Z,100.00
2023-10-07T00:19:49.193Z,99.52
2023-10-07T00:22:20.897Z,100.00
2023-10-07T00:24:50.199Z,100.00
2023-10-07T00:27:39.228Z,100.00
2023-10-07T00:30:14.674Z,99.51
2023-10-07T00:32:43.161Z,99.41
2023-10-07T00:35:12.833Z,99.11
2023-10-07T00:37:45.282Z,99.17
2023-10-07T00:40:16.123Z,99.33
2023-10-07T00:42:46.471Z,99.50
2023-10-07T00:45:17.852Z,99.14
2023-10-07T00:47:51.164Z,99.29
2023-10-07T00:50:19.320Z,100.00
2023-10-07T00:52:56.019Z,100.00
2023-10-07T00:55:38.663Z,100.00
2023-10-07T00:58:09.273Z,100.00
2023-10-07T01:00:40.237Z,100.00
2023-10-07T01:03:18.477Z,100.00
2023-10-07T01:06:02.356Z,100.00
2023-10-07T01:08:48.411Z,100.00
2023-10-07T01:11:19.590Z,100.00
2023-10-07T01:13:58.146Z,100.00
2023-10-07T01:16:47.980Z,100.00
2023-10-07T01:19:19.667Z,100.00
2023-10-07T01:22:12.967Z,100.00
2023-10-07T01:24:40.792Z,100.00
2023-10-07T01:27:31.105Z,100.00
2023-10-07T01:30:03.856Z,100.00
2023-10-07T01:32:35.518Z,100.00
2023-10-07T01:35:12.388Z,100.00
2023-10-07T01:37:50.030Z,100.00
2023-10-07T01:40:18.646Z,100.00
2023-10-07T01:42:46.672Z,100.00
2023-10-07T01:45:23.821Z,100.00
2023-10-07T01:47:56.942Z,100.00
2023-10-07T01:50:26.046Z,100.00
2023-10-07T01:52:57.493Z,100.00
2023-10-07T01:55:29.540Z,100.00
2023-10-07T01:57:57.875Z,100.00
2023-10-07T02:00:44.369Z,100.00
2023-10-07T02:03:25.195Z,100.00
2023-10-07T02:05:54.170Z,100.00
2023-10-07T02:08:24.737Z,100.00
2023-10-07T02:11:02.189Z,100.00
2023-10-07T02:13:32.988Z,100.00
2023-10-07T02:16:06.834Z,100.00
2023-10-07T02:18:36.942Z,100.00
2023-10-07T02:21:15.073Z,100.00
2023-10-07T02:23:44.957Z,100.00
2023-10-07T02:26:21.275Z,100.00
2023-10-07T02:28:54.775Z,100.00
2023-10-07T02:31:24.994Z,100.00
2023-10-07T02:33:53.810Z,100.00
2023-10-07T02:36:29.710Z,100.00
2023-10-07T02:39:20.358Z,100.00
2023-10-07T02:41:49.288Z,100.00
2023-10-07T02:44:29.638Z,100.00
2023-10-07T02:46:58.197Z,100.00
2023-10-07T02:49:27.488Z,100.00
2023-10-07T02:51:58.541Z,100.00
2023-10-07T02:54:34.532Z,100.00
2023-10-07T02:57:21.331Z,100.00
2023-10-07T02:59:52.504Z,100.00
2023-10-07T03:02:38.372Z,100.00
2023-10-07T03:05:12.972Z,100.00
2023-10-07T03:07:50.869Z,100.00
2023-10-07T03:10:19.966Z,100.00
2023-10-07T03:12:49.990Z,100.00
2023-10-07T03:15:28.137Z,100.00
2023-10-07T03:17:56.926Z,100.00
2023-10-07T03:20:29.694Z,100.00
2023-10-07T03:23:19.200Z,100.00
2023-10-07T03:26:10.091Z,100.00
2023-10-07T03:28:38.692Z,100.00
2023-10-07T03:31:12.451Z,100.00
2023-10-07T03:33:45.433Z,100.00
2023-10-07T03:36:32.329Z,100.00
2023-10-07T03:39:18.890Z,100.00
2023-10-07T03:41:49.582Z,100.00
2023-10-07T03:44:19.345Z,100.00
2023-10-07T03:46:49.819Z,100.00
2023-10-07T03:49:22.444Z,100.00
2023-10-07T03:52:04.737Z,100.00
2023-10-07T03:54:33.042Z,100.00
2023-10-07T03:57:04.270Z,100.00
2023-10-07T03:59:33.539Z,100.00
2023-10-07T04:02:24.471Z,100.00
2023-10-07T04:05:02.293Z,100.00
2023-10-07T04:07:32.759Z,100.00
2023-10-07T04:10:14.262Z,100.00
2023-10-07T04:12:42.172Z,100.00
2023-10-07T04:15:14.542Z,100.00
2023-10-07T04:17:44.742Z,100.00
2023-10-07T04:20:19.955Z,100.00
2023-10-07T04:23:02.352Z,100.00
2023-10-07T04:25:41.212Z,100.00
2023-10-07T04:28:09.345Z,100.00
2023-10-07T04:30:48.952Z,100.00
2023-10-07T04:33:27.095Z,100.00
2023-10-07T04:36:01.704Z,100.00
2023-10-07T04:38:40.612Z,100.00
2023-10-07T04:41:37.944Z,100.00
2023-10-07T04:44:44.228Z,100.00
2023-10-07T04:47:36.326Z,100.00
2023-10-07T04:50:17.055Z,100.00
2023-10-07T04:52:52.104Z,100.00
2023-10-07T04:55:27.727Z,100.00
2023-10-07T04:57:55.740Z,100.00
2023-10-07T05:00:33.338Z,100.00
2023-10-07T05:03:04.347Z,100.00
2023-10-07T05:05:34.795Z,100.00
2023-10-07T05:08:19.422Z,100.00
2023-10-07T05:10:54.726Z,100.00
2023-10-07T05:13:22.976Z,100.00
2023-10-07T05:15:51.142Z,100.00
2023-10-07T05:18:19.109Z,100.00
2023-10-07T05:20:50.071Z,100.00
2023-10-07T05:23:18.994Z,100.00
2023-10-07T05:25:50.707Z,100.00
2023-10-07T05:28:23.074Z,100.00
2023-10-07T05:30:52.794Z,100.00
2023-10-07T05:33:26.175Z,100.00
2023-10-07T05:36:15.255Z,100.00
2023-10-07T05:38:54.498Z,100.00
2023-10-07T05:41:26.560Z,100.00
2023-10-07T05:43:54.567Z,100.00
2023-10-07T05:46:22.555Z,100.00
2023-10-07T05:48:52.661Z,100.00
2023-10-07T05:51:20.549Z,100.00
2023-10-07T05:53:53.002Z,100.00
2023-10-07T05:56:21.230Z,100.00
2023-10-07T05:58:49.938Z,100.00
2023-10-07T06:01:20.145Z,100.00
2023-10-07T06:03:56.810Z,100.00
2023-10-07T06:06:25.786Z,100.00
2023-10-07T06:09:04.901Z,100.00
2023-10-07T06:11:34.106Z,100.00
2023-10-07T06:14:06.021Z,99.31
2023-10-07T06:16:34.944Z,98.56
2023-10-07T06:19:04.268Z,98.16
2023-10-07T06:21:33.466Z,97.28
2023-10-07T06:24:08.871Z,97.61
2023-10-07T06:26:38.273Z,96.66
2023-10-07T06:29:20.368Z,95.19
2023-10-07T06:32:19.350Z,94.19
2023-10-07T06:34:47.950Z,93.54
2023-10-07T06:37:16.484Z,93.26
2023-10-07T06:39:44.865Z,93.00
2023-10-07T06:42:13.193Z,92.46
2023-10-07T06:44:44.794Z,91.75
2023-10-07T06:47:13.916Z,91.14
2023-10-07T06:49:42.231Z,91.33
2023-10-07T06:52:14.129Z,91.77
2023-10-07T06:54:51.968Z,91.21
2023-10-07T06:57:30.960Z,90.74
2023-10-07T06:59:59.563Z,90.08
2023-10-07T07:02:36.377Z,90.50
2023-10-07T07:05:13.140Z,90.52
2023-10-07T07:07:43.316Z,89.20
2023-10-07T07:10:18.035Z,88.32
2023-10-07T07:12:46.633Z,88.74
2023-10-07T07:15:28.177Z,89.45
2023-10-07T07:18:15.394Z,89.07
2023-10-07T07:21:11.352Z,88.48
2023-10-07T07:23:44.751Z,86.42
2023-10-07T07:26:14.266Z,86.34
2023-10-07T07:28:45.550Z,86.91
2023-10-07T07:31:21.281Z,86.42
2023-10-07T07:33:49.958Z,85.21
2023-10-07T07:36:43.422Z,84.82
2023-10-07T07:39:19.269Z,85.08
2023-10-07T07:41:57.527Z,84.50
2023-10-07T07:44:35.341Z,84.78
2023-10-07T07:47:05.000Z,83.42
2023-10-07T07:49:34.750Z,82.01
2023-10-07T07:52:04.357Z,81.23
2023-10-07T07:54:33.111Z,80.93
2023-10-07T07:57:06.102Z,79.68
2023-10-07T07:59:34.844Z,77.82
2023-10-07T08:02:14.400Z,77.87
2023-10-07T08:04:47.622Z,77.09
2023-10-07T08:07:26.135Z,77.04
2023-10-07T08:09:59.408Z,76.96
2023-10-07T08:12:32.893Z,77.54
2023-10-07T08:15:16.413Z,77.29
2023-10-07T08:17:48.202Z,76.74
2023-10-07T08:20:23.796Z,76.04
2023-10-07T08:22:53.643Z,76.04
2023-10-07T08:26:01.601Z,75.56
2023-10-07T08:28:48.758Z,75.28
2023-10-07T08:31:20.164Z,75.80
2023-10-07T08:33:55.643Z,74.60
2023-10-07T08:36:30.826Z,75.24
2023-10-07T08:39:06.377Z,74.96
2023-10-07T08:41:35.063Z,75.52
2023-10-07T08:44:17.132Z,73.75
2023-10-07T08:46:54.250Z,74.45
2023-10-07T08:49:27.262Z,73.36
2023-10-07T08:51:57.052Z,72.88
2023-10-07T08:54:33.518Z,71.84
2023-10-07T08:57:10.603Z,72.80
2023-10-07T08:59:39.502Z,72.43
2023-10-07T09:02:18.661Z,71.77
2023-10-07T09:04:47.393Z,71.84
2023-10-07T09:07:19.692Z,71.89
2023-10-07T09:09:50.380Z,71.33
2023-10-07T09:12:41.027Z,70.76
2023-10-07T09:15:16.116Z,70.90
2023-10-07T09:17:47.116Z,70.51
2023-10-07T09:20:19.479Z,70.48
2023-10-07T09:22:55.274Z,70.88
2023-10-07T09:25:32.830Z,71.09
2023-10-07T09:28:03.406Z,70.50
2023-10-07T09:30:46.820Z,70.11
2023-10-07T09:33:20.806Z,71.09
2023-10-07T09:36:22.480Z,69.46
2023-10-07T09:39:06.959Z,69.29
2023-10-07T09:41:35.947Z,70.62
2023-10-07T09:44:11.362Z,69.21
2023-10-07T09:46:43.074Z,68.93
2023-10-07T09:49:16.146Z,69.12
2023-10-07T09:51:52.429Z,69.69
2023-10-07T09:55:20.382Z,68.99
2023-10-07T09:58:05.612Z,70.00
2023-10-07T10:01:08.294Z,68.88
2023-10-07T10:04:07.550Z,69.43
2023-10-07T10:07:11.966Z,68.41
2023-10-07T10:09:59.310Z,68.99
2023-10-07T10:12:50.416Z,69.58
2023-10-07T10:15:21.927Z,68.71
2023-10-07T10:17:57.245Z,68.52
2023-10-07T10:20:44.500Z,68.49
2023-10-07T10:23:21.418Z,69.04
2023-10-07T10:25:54.747Z,68.49
2023-10-07T10:28:29.468Z,68.67
2023-10-07T10:30:58.059Z,69.01
2023-10-07T10:33:30.107Z,69.61
2023-10-07T10:36:03.008Z,69.50
2023-10-07T10:38:42.460Z,70.02
2023-10-07T10:41:12.396Z,69.82
2023-10-07T10:43:41.305Z,68.15
2023-10-07T10:46:09.907Z,67.68
2023-10-07T10:48:40.545Z,65.55
2023-10-07T10:51:09.748Z,65.38
2023-10-07T10:53:42.721Z,64.02
2023-10-07T10:56:12.476Z,63.59
2023-10-07T10:58:41.121Z,63.62
2023-10-07T11:01:09.643Z,64.19
2023-10-07T11:03:38.934Z,63.30
2023-10-07T11:06:08.018Z,62.68
2023-10-07T11:08:39.082Z,62.61
2023-10-07T11:11:15.905Z,63.12
2023-10-07T11:13:46.052Z,63.28
2023-10-07T11:16:18.201Z,62.50
2023-10-07T11:18:48.913Z,63.10
2023-10-07T11:21:23.074Z,62.92
2023-10-07T11:23:59.740Z,62.57
2023-10-07T11:26:34.238Z,63.07
2023-10-07T11:29:16.279Z,63.55
2023-10-07T11:31:48.257Z,63.29
2023-10-07T11:34:21.387Z,64.19
2023-10-07T11:36:52.325Z,64.81
2023-10-07T11:39:29.972Z,63.74
2023-10-07T11:42:03.210Z,63.48
2023-10-07T11:44:33.392Z,62.61
2023-10-07T11:47:08.637Z,63.28
2023-10-07T11:49:59.264Z,64.30
2023-10-07T11:52:31.086Z,62.63
2023-10-07T11:55:03.116Z,62.26
2023-10-07T11:57:39.372Z,62.91
2023-10-07T12:00:24.768Z,61.82
2023-10-07T12:02:54.482Z,62.12
2023-10-07T12:05:22.770Z,61.73
2023-10-07T12:07:51.192Z,61.85
2023-10-07T12:10:23.588Z,61.55
2023-10-07T12:12:56.516Z,60.93
2023-10-07T12:15:26.808Z,60.58
2023-10-07T12:17:55.639Z,60.47
2023-10-07T12:20:25.753Z,60.57
2023-10-07T12:22:55.009Z,61.22
2023-10-07T12:25:25.195Z,61.03
2023-10-07T12:27:54.680Z,60.58
2023-10-07T12:30:28.137Z,60.40
2023-10-07T12:33:03.818Z,60.80
2023-10-07T12:35:36.540Z,60.10
2023-10-07T12:38:05.441Z,59.91
2023-10-07T12:40:33.789Z,60.59
2023-10-07T12:43:03.084Z,59.49
2023-10-07T12:45:32.466Z,61.02
2023-10-07T12:48:05.236Z,59.93
2023-10-07T12:50:35.177Z,60.34
2023-10-07T12:53:06.129Z,58.48
2023-10-07T12:55:38.655Z,58.47
2023-10-07T12:58:17.363Z,60.79
2023-10-07T13:00:46.066Z,59.76
2023-10-07T13:03:14.806Z,59.61
2023-10-07T13:05:47.091Z,60.15
2023-10-07T13:08:19.246Z,60.10
2023-10-07T13:10:47.882Z,60.60
2023-10-07T13:13:16.782Z,59.79
2023-10-07T13:15:47.358Z,61.76
2023-10-07T13:18:16.710Z,59.68
2023-10-07T13:20:46.083Z,59.29
2023-10-07T13:23:17.848Z,58.57
2023-10-07T13:25:47.669Z,59.48
2023-10-07T13:28:19.024Z,59.20
2023-10-07T13:30:47.810Z,58.59
2023-10-07T13:33:17.337Z,59.29
2023-10-07T13:35:47.238Z,60.51
2023-10-07T13:38:17.271Z,59.32
2023-10-07T13:40:46.294Z,59.04
2023-10-07T13:43:24.818Z,58.83
2023-10-07T13:45:53.873Z,58.80
2023-10-07T13:48:26.205Z,58.99
2023-10-07T13:51:01.779Z,58.79
2023-10-07T13:53:51.464Z,58.62
2023-10-07T13:56:44.974Z,58.64
2023-10-07T13:59:13.915Z,58.76
2023-10-07T14:01:44.086Z,59.07
2023-10-07T14:04:17.020Z,59.99
2023-10-07T14:06:49.648Z,58.88
2023-10-07T14:09:24.165Z,59.19
2023-10-07T14:11:53.590Z,60.45
2023-10-07T14:14:22.661Z,58.88
2023-10-07T14:16:57.478Z,59.31
2023-10-07T14:19:29.798Z,60.15
2023-10-07T14:22:04.009Z,60.63
2023-10-07T14:24:40.917Z,59.95
2023-10-07T14:27:16.847Z,60.11
2023-10-07T14:29:49.895Z,60.88
2023-10-07T14:32:20.162Z,60.70
2023-10-07T14:34:49.595Z,61.28
2023-10-07T14:37:25.595Z,61.38
2023-10-07T14:39:58.478Z,60.91
2023-10-07T14:42:27.167Z,61.35
2023-10-07T14:44:57.188Z,61.66
2023-10-07T14:47:26.320Z,61.96
2023-10-07T14:49:56.397Z,61.59
2023-10-07T14:52:25.292Z,62.64
2023-10-07T14:54:56.204Z,62.81
2023-10-07T14:57:32.775Z,63.29
2023-10-07T15:00:12.291Z,64.15
2023-10-07T15:02:41.679Z,65.36
2023-10-07T15:05:11.728Z,64.31
2023-10-07T15:07:43.375Z,63.26
2023-10-07T15:10:15.126Z,64.05
2023-10-07T15:12:48.784Z,64.78
2023-10-07T15:15:17.260Z,65.04
2023-10-07T15:17:49.171Z,64.90
2023-10-07T15:20:17.819Z,66.54
2023-10-07T15:22:46.404Z,64.79
2023-10-07T15:25:14.668Z,65.38
2023-10-07T15:27:43.682Z,64.68
2023-10-07T15:30:13.523Z,65.79
2023-10-07T15:32:45.846Z,64.81
2023-10-07T15:35:14.388Z,65.69
2023-10-07T15:37:47.011Z,66.15
2023-10-07T15:40:16.363Z,67.08
2023-10-07T15:42:47.199Z,66.24
2023-10-07T15:45:15.728Z,67.22
2023-10-07T15:47:44.187Z,67.66
2023-10-07T15:50:12.658Z,66.96
2023-10-07T15:52:41.183Z,67.58
2023-10-07T15:55:11.513Z,68.63
2023-10-07T15:57:39.937Z,69.68
2023-10-07T16:00:13.076Z,69.18
2023-10-07T16:02:41.716Z,69.68
2023-10-07T16:05:12.227Z,69.10
2023-10-07T16:07:40.574Z,70.15
2023-10-07T16:10:14.256Z,69.37
2023-10-07T16:12:44.140Z,69.30
2023-10-07T16:15:16.073Z,70.04
2023-10-07T16:17:44.460Z,68.22
2023-10-07T16:20:13.133Z,69.74
2023-10-07T16:22:41.898Z,69.45
2023-10-07T16:25:11.405Z,70.76
2023-10-07T16:27:39.891Z,71.85
2023-10-07T16:30:08.890Z,72.11
2023-10-07T16:32:37.708Z,72.39
2023-10-07T16:35:07.481Z,72.76
2023-10-07T16:37:35.913Z,73.12
2023-10-07T16:40:05.526Z,73.89
2023-10-07T16:42:33.856Z,74.14
2023-10-07T16:47:36.024Z,74.41
2023-10-07T16:50:04.963Z,75.48
2023-10-07T16:52:33.474Z,74.96
2023-10-07T16:55:08.404Z,75.21
2023-10-07T16:57:37.445Z,76.00
2023-10-07T17:00:07.000Z,76.09
2023-10-07T17:02:36.176Z,76.39
2023-10-07T17:05:05.117Z,76.70
2023-10-07T17:07:33.581Z,76.62
2023-10-07T17:10:02.412Z,77.54
2023-10-07T17:12:30.850Z,77.60
2023-10-07T17:14:59.376Z,77.96
2023-10-07T17:17:27.984Z,78.06
2023-10-07T17:19:56.442Z,77.79
2023-10-07T17:22:24.987Z,78.32
2023-10-07T17:24:53.746Z,78.65
2023-10-07T17:27:22.661Z,78.20
2023-10-07T17:29:51.807Z,79.16
2023-10-07T17:32:21.008Z,79.48
2023-10-07T17:34:49.815Z,79.49
2023-10-07T17:37:18.185Z,80.46
2023-10-07T17:39:46.904Z,80.34
2023-10-07T17:42:15.570Z,80.65
2023-10-07T17:44:43.863Z,81.02
2023-10-07T17:47:13.621Z,81.67
2023-10-07T17:49:42.262Z,81.50
2023-10-07T17:52:10.758Z,82.32
2023-10-07T17:54:39.335Z,81.52
2023-10-07T17:57:08.276Z,82.36
2023-10-07T17:59:36.921Z,82.91
2023-10-07T18:02:05.398Z,82.51
2023-10-07T18:04:35.861Z,82.69
2023-10-07T18:07:05.057Z,83.06
2023-10-07T18:09:33.699Z,83.67
2023-10-07T18:12:02.083Z,84.09
2023-10-07T18:14:33.879Z,83.37
2023-10-07T18:17:02.475Z,84.47
2023-10-07T18:19:33.362Z,85.54
2023-10-07T18:22:02.094Z,85.27
2023-10-07T18:24:31.499Z,85.53
2023-10-07T18:27:03.417Z,84.96
2023-10-07T18:29:33.031Z,86.38
2023-10-07T18:32:01.716Z,86.08
2023-10-07T18:34:30.390Z,86.64
2023-10-07T18:36:59.092Z,87.44
2023-10-07T18:39:27.776Z,87.67
2023-10-07T18:41:56.250Z,87.02
2023-10-07T18:44:25.153Z,86.78
2023-10-07T18:46:53.724Z,87.18
2023-10-07T18:49:22.163Z,87.78
2023-10-07T18:51:51.328Z,88.67
2023-10-07T18:54:19.688Z,89.52
2023-10-07T18:56:48.417Z,90.48
2023-10-07T18:59:17.710Z,91.08
2023-10-07T19:01:46.514Z,91.35
2023-10-07T19:04:14.968Z,91.86
2023-10-07T19:06:43.424Z,92.75
2023-10-07T19:09:13.946Z,92.41
2023-10-07T19:11:43.014Z,92.66
2023-10-07T19:14:11.558Z,92.00
2023-10-07T19:16:40.273Z,92.27
2023-10-07T19:19:12.037Z,91.81
2023-10-07T19:21:41.066Z,91.84
2023-10-07T19:24:09.558Z,92.01
2023-10-07T19:26:38.110Z,92.02
2023-10-07T19:29:10.774Z,92.75
2023-10-07T19:31:39.203Z,93.15
2023-10-07T19:34:07.853Z,93.06
2023-10-07T19:36:36.513Z,93.04
2023-10-07T19:39:05.533Z,93.55
2023-10-07T19:41:34.352Z,93.35
2023-10-07T19:44:03.113Z,92.90
2023-10-07T19:46:32.074Z,94.17
2023-10-07T19:49:00.631Z,94.66
2023-10-07T19:51:28.940Z,94.18
2023-10-07T19:53:57.424Z,95.31
2023-10-07T19:56:25.931Z,94.41
2023-10-07T19:58:56.026Z,94.21
2023-10-07T20:01:24.609Z,93.93
2023-10-07T20:03:57.033Z,93.88
2023-10-07T20:06:27.353Z,93.79
2023-10-07T20:08:56.757Z,93.97
2023-10-07T20:11:26.500Z,95.25
2023-10-07T20:13:55.311Z,95.73
2023-10-07T20:16:24.283Z,95.93
2023-10-07T20:18:53.772Z,95.86
2023-10-07T20:21:24.241Z,95.49
2023-10-07T20:23:52.738Z,95.34
2023-10-07T20:26:21.975Z,95.69
2023-10-07T20:28:50.645Z,96.22
2023-10-07T20:31:19.973Z,97.05
2023-10-07T20:33:48.485Z,96.41
2023-10-07T20:36:17.170Z,95.99
2023-10-07T20:38:46.512Z,95.62
2023-10-07T20:41:15.286Z,96.00
2023-10-07T20:43:45.142Z,97.42
2023-10-07T20:46:13.539Z,97.00
2023-10-07T20:48:42.487Z,96.78
2023-10-07T20:51:15.880Z,96.63
2023-10-07T20:53:49.053Z,97.28
2023-10-07T20:56:24.239Z,96.30
2023-10-07T20:58:52.665Z,96.64
2023-10-07T21:01:22.754Z,97.85
2023-10-07T21:03:53.209Z,97.19
2023-10-07T21:06:22.847Z,98.15
2023-10-07T21:08:53.075Z,98.38
2023-10-07T21:11:25.204Z,98.12
2023-10-07T21:13:59.313Z,97.16
2023-10-07T21:16:29.238Z,96.86
2023-10-07T21:19:00.284Z,96.59
2023-10-07T21:21:29.216Z,97.38
2023-10-07T21:23:58.012Z,97.37
2023-10-07T21:26:26.671Z,97.05
2023-10-07T21:28:56.720Z,96.94
2023-10-07T21:31:31.882Z,96.92
2023-10-07T21:34:00.382Z,96.39
2023-10-07T21:36:29.749Z,96.70
2023-10-07T21:38:58.117Z,96.83
2023-10-07T21:41:27.324Z,97.92
2023-10-07T21:43:55.538Z,98.53
2023-10-07T21:46:24.036Z,100.00
2023-10-07T21:48:52.448Z,100.00
2023-10-07T21:51:21.313Z,100.00
2023-10-07T21:53:50.540Z,100.00
2023-10-07T21:56:19.034Z,100.00
2023-10-07T21:58:47.345Z,100.00
2023-10-07T22:01:19.105Z,100.00
2023-10-07T22:03:49.722Z,100.00
2023-10-07T22:06:19.536Z,100.00
2023-10-07T22:08:48.602Z,100.00
2023-10-07T22:11:17.293Z,100.00
2023-10-07T22:13:45.734Z,100.00
2023-10-07T22:16:13.701Z,100.00
2023-10-07T22:18:42.578Z,100.00
2023-10-07T22:21:12.672Z,100.00
2023-10-07T22:23:40.830Z,100.00
2023-10-07T22:26:13.342Z,100.00
2023-10-07T22:28:41.442Z,100.00
2023-10-07T22:31:09.619Z,100.00
2023-10-07T22:33:42.980Z,100.00
2023-10-07T22:36:19.520Z,100.00
2023-10-07T22:38:55.045Z,100.00
2023-10-07T22:41:39.391Z,100.00
2023-10-07T22:44:23.472Z,100.00
2023-10-07T22:46:51.876Z,100.00
2023-10-07T22:49:28.039Z,100.00
2023-10-07T22:51:56.696Z,100.00
2023-10-07T22:54:33.913Z,100.00
2023-10-07T22:57:09.068Z,100.00
2023-10-07T22:59:39.892Z,100.00
2023-10-07T23:02:13.771Z,100.00
2023-10-07T23:04:48.846Z,100.00
2023-10-07T23:07:26.460Z,100.00
2023-10-07T23:10:00.487Z,100.00
2023-10-07T23:12:40.347Z,100.00
2023-10-07T23:15:23.990Z,100.00
2023-10-07T23:17:53.349Z,100.00
2023-10-07T23:20:21.463Z,100.00
2023-10-07T23:22:49.397Z,100.00
2023-10-07T23:25:22.978Z,100.00
2023-10-07T23:27:51.339Z,100.00
2023-10-07T23:30:29.415Z,100.00
2023-10-07T23:33:00.587Z,100.00
2023-10-07T23:35:33.411Z,100.00
2023-10-07T23:38:20.054Z,100.00
2023-10-07T23:40:53.533Z,100.00
2023-10-07T23:43:22.670Z,100.00
2023-10-07T23:45:52.849Z,100.00
2023-10-07T23:48:21.141Z,100.00
2023-10-07T23:50:57.750Z,100.00
2023-10-07T23:53:27.656Z,100.00
2023-10-07T23:56:10.337Z,100.00
2023-10-07T23:58:44.766Z,100.00
